createdAt,value
2023-05-06T00:01:11.312Z,12.30
2023-05-06T00:03:38.253Z,12.30
2023-05-06T00:06:07.299Z,12.20
2023-05-06T00:08:36.619Z,12.20
2023-05-06T00:11:03.398Z,12.20
2023-05-06T00:13:32.937Z,12.20
2023-05-06T00:15:59.741Z,12.20
2023-05-06T00:18:26.647Z,12.10
2023-05-06T00:20:53.425Z,12.10
2023-05-06T00:23:20.189Z,12.10
2023-05-06T00:25:48.235Z,12.10
2023-05-06T00:28:14.989Z,12.00
2023-05-06T00:30:41.768Z,12.00
2023-05-06T00:33:08.669Z,12.00
2023-05-06T00:35:35.640Z,12.00
2023-05-06T00:38:02.561Z,12.00
2023-05-06T00:40:29.264Z,12.00
2023-05-06T00:42:56.086Z,12.00
2023-05-06T00:45:22.819Z,12.10
2023-05-06T00:47:49.678Z,12.00
2023-05-06T00:50:18.969Z,12.00
2023-05-06T00:52:45.612Z,12.00
2023-05-06T00:55:12.358Z,12.00
2023-05-06T00:57:39.146Z,12.00
2023-05-06T01:00:07.383Z,12.00
2023-05-06T01:02:46.547Z,12.00
2023-05-06T01:05:14.165Z,12.10
2023-05-06T01:07:40.968Z,12.20
2023-05-06T01:10:07.658Z,12.20
2023-05-06T01:12:34.488Z,12.20
2023-05-06T01:15:01.436Z,12.20
2023-05-06T01:17:31.141Z,12.30
2023-05-06T01:19:58.524Z,12.30
2023-05-06T01:22:25.200Z,12.30
2023-05-06T01:24:51.953Z,12.30
2023-05-06T01:27:18.732Z,12.30
2023-05-06T01:29:45.508Z,12.40
2023-05-06T01:32:12.424Z,12.40
2023-05-06T01:34:39.339Z,12.50
2023-05-06T01:37:08.899Z,12.50
2023-05-06T01:39:35.586Z,12.50
2023-05-06T01:42:02.285Z,12.60
2023-05-06T01:44:29.246Z,12.60
2023-05-06T01:46:55.982Z,12.70
2023-05-06T01:49:22.858Z,12.70
2023-05-06T01:51:49.653Z,12.70
2023-05-06T01:54:16.577Z,12.80
2023-05-06T01:56:43.372Z,12.80
2023-05-06T01:59:10.289Z,12.80
2023-05-06T02:01:37.198Z,12.80
2023-05-06T02:04:04.387Z,12.80
2023-05-06T02:06:31.893Z,12.80
2023-05-06T02:08:58.627Z,12.70
2023-05-06T02:11:25.901Z,12.70
2023-05-06T02:13:52.853Z,12.70
2023-05-06T02:16:20.363Z,12.70
2023-05-06T02:18:47.129Z,12.60
2023-05-06T02:21:13.811Z,12.60
2023-05-06T02:23:40.729Z,12.50
2023-05-06T02:26:07.437Z,12.40
2023-05-06T02:28:34.195Z,12.30
2023-05-06T02:31:00.830Z,12.20
2023-05-06T02:33:30.083Z,12.20
2023-05-06T02:35:56.847Z,12.10
2023-05-06T02:38:23.848Z,12.10
2023-05-06T02:40:50.676Z,12.10
2023-05-06T02:43:17.430Z,12.10
2023-05-06T02:45:45.298Z,12.00
2023-05-06T02:48:12.016Z,11.90
2023-05-06T02:50:38.830Z,11.80
2023-05-06T02:53:05.509Z,11.70
2023-05-06T02:55:32.250Z,11.70
2023-05-06T02:57:59.068Z,11.60
2023-05-06T03:00:26.171Z,11.60
2023-05-06T03:02:52.952Z,11.50
2023-05-06T03:05:19.673Z,11.50
2023-05-06T03:07:46.382Z,11.40
2023-05-06T03:10:13.126Z,11.40
2023-05-06T03:12:39.965Z,11.40
2023-05-06T03:15:07.477Z,11.30
2023-05-06T03:17:34.268Z,11.30
2023-05-06T03:20:01.017Z,11.30
2023-05-06T03:22:27.869Z,11.30
2023-05-06T03:24:54.668Z,11.20
2023-05-06T03:27:21.436Z,11.10
2023-05-06T03:29:48.190Z,11.10
2023-05-06T03:32:15.005Z,11.00
2023-05-06T03:34:41.686Z,11.00
2023-05-06T03:37:08.511Z,10.90
2023-05-06T03:39:37.796Z,10.90
2023-05-06T03:42:05.557Z,10.90
2023-05-06T03:44:34.057Z,10.80
2023-05-06T03:47:00.773Z,10.80
2023-05-06T03:49:27.612Z,10.80
2023-05-06T03:51:54.309Z,10.80
2023-05-06T03:54:21.095Z,10.80
2023-05-06T03:56:47.950Z,10.80
2023-05-06T03:59:14.817Z,10.80
2023-05-06T04:01:42.200Z,10.70
2023-05-06T04:04:09.089Z,10.80
2023-05-06T04:06:35.940Z,10.70
2023-05-06T04:09:02.698Z,10.80
2023-05-06T04:11:29.987Z,10.80
2023-05-06T04:13:56.801Z,10.80
2023-05-06T04:16:25.170Z,10.80
2023-05-06T04:18:52.972Z,10.90
2023-05-06T04:21:22.120Z,10.90
2023-05-06T04:23:49.167Z,10.90
2023-05-06T04:26:16.056Z,10.90
2023-05-06T04:28:42.737Z,10.90
2023-05-06T04:31:09.520Z,10.90
2023-05-06T04:33:36.408Z,10.90
2023-05-06T04:36:03.579Z,11.00
2023-05-06T04:38:34.102Z,11.00
2023-05-06T04:41:01.096Z,11.10
2023-05-06T04:43:39.043Z,11.20
2023-05-06T04:46:05.998Z,11.20
2023-05-06T04:48:35.386Z,11.30
2023-05-06T04:51:04.414Z,11.30
2023-05-06T04:53:31.261Z,11.30
2023-05-06T04:56:01.089Z,11.30
2023-05-06T04:58:27.819Z,11.30
2023-05-06T05:00:54.707Z,11.30
2023-05-06T05:03:21.743Z,11.40
2023-05-06T05:05:48.582Z,11.30
2023-05-06T05:08:15.275Z,11.40
2023-05-06T05:10:42.942Z,11.40
2023-05-06T05:13:09.757Z,11.50
2023-05-06T05:15:39.363Z,11.50
2023-05-06T05:18:06.313Z,11.60
2023-05-06T05:20:33.161Z,11.60
2023-05-06T05:22:59.900Z,11.70
2023-05-06T05:25:27.125Z,11.70
2023-05-06T05:27:53.824Z,11.80
2023-05-06T05:30:20.944Z,11.80
2023-05-06T05:32:47.719Z,11.80
2023-05-06T05:35:14.434Z,11.90
2023-05-06T05:37:41.112Z,12.10
2023-05-06T05:40:07.800Z,12.20
2023-05-06T05:42:34.552Z,12.30
2023-05-06T05:45:01.333Z,12.40
2023-05-06T05:47:28.141Z,12.40
2023-05-06T05:49:54.874Z,12.50
2023-05-06T05:52:21.602Z,12.60
2023-05-06T05:54:48.384Z,12.70
2023-05-06T05:57:15.011Z,12.70
2023-05-06T05:59:41.642Z,12.80
2023-05-06T06:02:08.360Z,12.90
2023-05-06T06:04:35.143Z,12.90
2023-05-06T06:07:02.130Z,13.00
2023-05-06T06:09:28.932Z,13.10
2023-05-06T06:11:55.655Z,13.20
2023-05-06T06:14:22.384Z,13.30
2023-05-06T06:16:49.121Z,13.40
2023-05-06T06:19:15.988Z,13.50
2023-05-06T06:21:42.728Z,13.70
2023-05-06T06:24:09.718Z,13.80
2023-05-06T06:26:36.422Z,13.90
2023-05-06T06:29:03.128Z,14.10
2023-05-06T06:31:29.879Z,14.20
2023-05-06T06:33:56.642Z,14.30
2023-05-06T06:36:23.368Z,14.30
2023-05-06T06:38:50.164Z,14.50
2023-05-06T06:41:16.971Z,14.50
2023-05-06T06:43:43.637Z,14.50
2023-05-06T06:46:10.403Z,14.60
2023-05-06T06:48:37.128Z,14.60
2023-05-06T06:51:03.797Z,14.70
2023-05-06T06:53:30.406Z,14.70
2023-05-06T06:55:57.033Z,14.80
2023-05-06T06:58:23.794Z,14.90
2023-05-06T07:00:50.777Z,14.90
2023-05-06T07:03:19.586Z,15.00
2023-05-06T07:05:46.622Z,15.00
2023-05-06T07:08:13.292Z,15.10
2023-05-06T07:10:40.033Z,15.20
2023-05-06T07:13:06.865Z,15.30
2023-05-06T07:15:33.578Z,15.40
2023-05-06T07:18:00.341Z,15.50
2023-05-06T07:20:27.109Z,15.60
2023-05-06T07:22:56.742Z,15.70
2023-05-06T07:25:23.409Z,15.80
2023-05-06T07:27:50.396Z,15.90
2023-05-06T07:30:17.175Z,16.00
2023-05-06T07:32:43.937Z,16.10
2023-05-06T07:35:10.928Z,16.20
2023-05-06T07:37:37.831Z,16.40
2023-05-06T07:40:04.858Z,16.50
2023-05-06T07:42:31.571Z,16.60
2023-05-06T07:44:58.274Z,16.60
2023-05-06T07:47:25.007Z,16.70
2023-05-06T07:49:51.856Z,16.80
2023-05-06T07:52:18.499Z,16.70
2023-05-06T07:54:45.237Z,16.70
2023-05-06T07:57:12.048Z,16.70
2023-05-06T07:59:38.735Z,16.70
2023-05-06T08:02:05.529Z,16.70
2023-05-06T08:04:32.309Z,16.70
2023-05-06T08:06:59.016Z,16.80
2023-05-06T08:09:25.713Z,16.90
2023-05-06T08:11:52.642Z,16.90
2023-05-06T08:14:19.300Z,16.80
2023-05-06T08:16:46.317Z,16.80
2023-05-06T08:19:13.124Z,16.90
2023-05-06T08:21:39.750Z,16.70
2023-05-06T08:24:06.477Z,16.60
2023-05-06T08:26:33.209Z,16.50
2023-05-06T08:28:59.891Z,16.50
2023-05-06T08:31:26.879Z,16.50
2023-05-06T08:33:54.707Z,16.40
2023-05-06T08:36:22.266Z,16.30
2023-05-06T08:38:51.052Z,16.30
2023-05-06T08:41:17.744Z,16.30
2023-05-06T08:43:44.607Z,16.30
2023-05-06T08:46:11.560Z,16.20
2023-05-06T08:48:38.242Z,16.10
2023-05-06T08:51:05.092Z,16.10
2023-05-06T08:53:31.713Z,16.10
2023-05-06T08:55:58.361Z,16.00
2023-05-06T08:58:25.021Z,15.90
2023-05-06T09:00:51.844Z,15.80
2023-05-06T09:03:18.630Z,15.80
2023-05-06T09:05:45.640Z,15.80
2023-05-06T09:08:12.289Z,15.90
2023-05-06T09:10:39.028Z,16.00
2023-05-06T09:13:05.683Z,16.10
2023-05-06T09:15:32.461Z,16.00
2023-05-06T09:17:59.399Z,16.10
2023-05-06T09:20:26.199Z,16.20
2023-05-06T09:22:53.988Z,16.20
2023-05-06T09:25:20.673Z,16.20
2023-05-06T09:27:47.367Z,16.00
2023-05-06T09:30:14.073Z,15.90
2023-05-06T09:32:41.296Z,15.80
2023-05-06T09:35:08.477Z,15.80
2023-05-06T09:37:35.533Z,15.70
2023-05-06T09:40:02.295Z,15.70
2023-05-06T09:42:29.059Z,15.70
2023-05-06T09:44:55.743Z,15.80
2023-05-06T09:47:22.861Z,15.80
2023-05-06T09:49:49.519Z,15.80
2023-05-06T09:52:16.481Z,15.80
2023-05-06T09:54:43.155Z,15.80
2023-05-06T09:57:09.801Z,15.80
2023-05-06T09:59:36.437Z,15.80
2023-05-06T10:02:03.201Z,15.80
2023-05-06T10:04:30.184Z,15.80
2023-05-06T10:06:57.358Z,15.80
2023-05-06T10:09:24.098Z,15.80
2023-05-06T10:11:50.819Z,15.70
2023-05-06T10:14:17.574Z,15.60
2023-05-06T10:16:44.315Z,15.50
2023-05-06T10:19:11.226Z,15.40
2023-05-06T10:21:38.007Z,15.40
2023-05-06T10:24:04.691Z,15.30
2023-05-06T10:26:31.787Z,15.20
2023-05-06T10:28:58.516Z,15.10
2023-05-06T10:31:25.247Z,15.10
2023-05-06T10:33:52.034Z,15.10
2023-05-06T10:36:20.340Z,15.10
2023-05-06T10:38:49.317Z,15.10
2023-05-06T10:41:16.503Z,15.10
2023-05-06T10:43:43.224Z,15.10
2023-05-06T10:46:09.990Z,15.10
2023-05-06T10:48:36.741Z,15.10
2023-05-06T10:51:03.440Z,15.20
2023-05-06T10:53:30.254Z,15.20
2023-05-06T10:55:57.182Z,15.30
2023-05-06T10:58:23.983Z,15.40
2023-05-06T11:00:50.655Z,15.40
2023-05-06T11:03:18.914Z,15.40
2023-05-06T11:05:45.884Z,15.40
2023-05-06T11:08:12.563Z,15.40
2023-05-06T11:10:39.386Z,15.50
2023-05-06T11:13:06.207Z,15.40
2023-05-06T11:15:32.985Z,15.30
2023-05-06T11:17:59.707Z,15.20
2023-05-06T11:20:26.827Z,15.20
2023-05-06T11:22:53.623Z,15.10
2023-05-06T11:25:20.507Z,15.10
2023-05-06T11:30:14.913Z,15.10
2023-05-06T11:32:41.655Z,15.20
2023-05-06T11:35:08.406Z,15.20
2023-05-06T11:37:38.014Z,15.20
2023-05-06T11:40:06.372Z,15.30
2023-05-06T11:42:33.132Z,15.30
2023-05-06T11:44:59.930Z,15.40
2023-05-06T11:47:26.603Z,15.40
2023-05-06T11:49:53.318Z,15.30
2023-05-06T11:52:20.983Z,15.40
2023-05-06T11:54:49.613Z,15.40
2023-05-06T11:57:16.898Z,15.40
2023-05-06T11:59:43.595Z,15.50
2023-05-06T12:02:10.373Z,15.60
2023-05-06T12:04:37.267Z,15.60
2023-05-06T12:07:04.038Z,15.70
2023-05-06T12:09:30.752Z,15.70
2023-05-06T12:11:57.442Z,15.70
2023-05-06T12:14:24.228Z,15.70
2023-05-06T12:16:50.864Z,15.60
2023-05-06T12:19:18.403Z,15.60
2023-05-06T12:21:45.217Z,15.60
2023-05-06T12:24:12.900Z,15.40
2023-05-06T12:26:39.665Z,15.30
2023-05-06T12:29:07.132Z,15.30
2023-05-06T12:31:33.854Z,15.30
2023-05-06T12:34:01.387Z,15.40
2023-05-06T12:36:28.122Z,15.50
2023-05-06T12:38:55.186Z,15.70
2023-05-06T12:41:21.900Z,15.80
2023-05-06T12:43:49.770Z,15.90
2023-05-06T12:46:16.632Z,16.00
2023-05-06T12:48:43.474Z,16.00
2023-05-06T12:51:10.188Z,16.00
2023-05-06T12:53:36.863Z,16.10
2023-05-06T12:56:03.599Z,16.10
2023-05-06T12:58:30.429Z,16.20
2023-05-06T13:00:57.254Z,16.30
2023-05-06T13:03:24.144Z,16.30
2023-05-06T13:05:52.055Z,16.30
2023-05-06T13:08:18.798Z,16.20
2023-05-06T13:10:45.798Z,16.00
2023-05-06T13:13:12.548Z,15.80
2023-05-06T13:15:39.311Z,15.90
2023-05-06T13:18:06.044Z,15.80
2023-05-06T13:20:32.850Z,15.90
2023-05-06T13:22:59.608Z,15.80
2023-05-06T13:25:26.338Z,15.70
2023-05-06T13:27:53.056Z,15.60
2023-05-06T13:30:19.839Z,15.50
2023-05-06T13:32:49.114Z,15.40
2023-05-06T13:35:15.833Z,15.40
2023-05-06T13:37:42.537Z,15.40
2023-05-06T13:40:09.562Z,15.40
2023-05-06T13:42:36.496Z,15.40
2023-05-06T13:45:03.199Z,15.50
2023-05-06T13:47:29.866Z,15.50
2023-05-06T13:49:56.546Z,15.50
2023-05-06T13:52:23.279Z,15.50
2023-05-06T13:54:50.008Z,15.40
2023-05-06T13:57:17.454Z,15.30
2023-05-06T13:59:44.056Z,15.30
2023-05-06T14:02:11.760Z,15.20
2023-05-06T14:04:38.593Z,15.20
2023-05-06T14:07:05.300Z,15.20
2023-05-06T14:09:32.141Z,15.20
2023-05-06T14:11:58.790Z,15.20
2023-05-06T14:14:25.546Z,15.30
2023-05-06T14:16:54.608Z,15.30
2023-05-06T14:19:21.359Z,15.10
2023-05-06T14:21:48.090Z,15.10
2023-05-06T14:24:14.806Z,15.00
2023-05-06T14:26:41.744Z,14.90
2023-05-06T14:29:08.512Z,14.80
2023-05-06T14:31:35.240Z,14.70
2023-05-06T14:34:01.984Z,14.60
2023-05-06T14:36:28.742Z,14.50
2023-05-06T14:38:55.392Z,14.50
2023-05-06T14:41:22.120Z,14.40
2023-05-06T14:43:48.784Z,14.40
2023-05-06T14:46:16.025Z,14.40
2023-05-06T14:48:43.463Z,14.40
2023-05-06T14:51:10.104Z,14.40
2023-05-06T14:53:36.807Z,14.40
2023-05-06T14:56:03.520Z,14.50
2023-05-06T14:58:30.106Z,14.60
2023-05-06T15:00:57.105Z,14.60
2023-05-06T15:03:23.778Z,14.70
2023-05-06T15:05:51.112Z,14.70
2023-05-06T15:08:17.882Z,14.80
2023-05-06T15:10:44.535Z,14.80
2023-05-06T15:13:11.299Z,14.90
2023-05-06T15:15:37.954Z,14.90
2023-05-06T15:18:04.841Z,14.90
2023-05-06T15:20:31.526Z,14.90
2023-05-06T15:22:58.266Z,14.90
2023-05-06T15:25:35.119Z,14.90
2023-05-06T15:28:03.102Z,14.90
2023-05-06T15:30:29.768Z,15.00
2023-05-06T15:32:56.495Z,15.00
2023-05-06T15:35:23.305Z,15.00
2023-05-06T15:37:49.984Z,15.10
2023-05-06T15:40:17.033Z,15.00
2023-05-06T15:42:43.716Z,15.00
2023-05-06T15:45:11.562Z,15.00
2023-05-06T15:47:38.252Z,14.90
2023-05-06T15:50:14.130Z,15.00
2023-05-06T15:52:47.883Z,14.90
2023-05-06T15:55:14.595Z,14.90
2023-05-06T15:57:43.170Z,14.90
2023-05-06T16:00:10.150Z,14.90
2023-05-06T16:02:37.349Z,14.90
2023-05-06T16:05:04.361Z,14.90
2023-05-06T16:07:31.104Z,14.90
2023-05-06T16:09:57.774Z,14.90
2023-05-06T16:12:24.436Z,14.90
2023-05-06T16:14:51.104Z,14.90
2023-05-06T16:17:17.799Z,14.90
2023-05-06T16:19:44.491Z,14.90
2023-05-06T16:22:11.167Z,14.90
2023-05-06T16:24:37.911Z,14.90
2023-05-06T16:27:05.752Z,14.90
2023-05-06T16:29:32.517Z,14.90
2023-05-06T16:31:59.314Z,14.80
2023-05-06T16:34:26.010Z,14.80
2023-05-06T16:36:52.902Z,14.80
2023-05-06T16:39:19.641Z,14.80
2023-05-06T16:41:46.590Z,14.80
2023-05-06T16:44:13.310Z,14.80
2023-05-06T16:46:40.003Z,14.80
2023-05-06T16:49:07.248Z,14.70
2023-05-06T16:51:34.053Z,14.70
2023-05-06T16:54:00.766Z,14.70
2023-05-06T16:56:36.771Z,14.60
2023-05-06T16:59:11.162Z,14.50
2023-05-06T17:01:37.910Z,14.60
2023-05-06T17:04:04.690Z,14.60
2023-05-06T17:06:32.140Z,14.60
2023-05-06T17:08:59.174Z,14.60
2023-05-06T17:11:25.830Z,14.60
2023-05-06T17:13:53.167Z,14.60
2023-05-06T17:16:20.088Z,14.60
2023-05-06T17:18:46.757Z,14.60
2023-05-06T17:21:13.416Z,14.60
2023-05-06T17:23:40.121Z,14.60
2023-05-06T17:26:10.379Z,14.60
2023-05-06T17:28:37.834Z,14.60
2023-05-06T17:31:04.658Z,14.60
2023-05-06T17:33:31.487Z,14.60
2023-05-06T17:35:58.172Z,14.60
2023-05-06T17:38:24.780Z,14.60
2023-05-06T17:40:51.578Z,14.60
2023-05-06T17:43:18.240Z,14.60
2023-05-06T17:45:44.884Z,14.60
2023-05-06T17:48:11.673Z,14.60
2023-05-06T17:50:38.444Z,14.60
2023-05-06T17:53:05.126Z,14.60
2023-05-06T17:55:31.906Z,14.60
2023-05-06T17:57:58.614Z,14.50
2023-05-06T18:00:25.383Z,14.50
2023-05-06T18:02:52.205Z,14.50
2023-05-06T18:05:18.931Z,14.50
2023-05-06T18:07:45.577Z,14.50
2023-05-06T18:10:12.393Z,14.40
2023-05-06T18:12:39.115Z,14.40
2023-05-06T18:15:05.779Z,14.40
2023-05-06T18:17:32.511Z,14.30
2023-05-06T18:19:59.236Z,14.40
2023-05-06T18:22:25.893Z,14.30
2023-05-06T18:24:55.385Z,14.30
2023-05-06T18:27:22.250Z,14.30
2023-05-06T18:29:48.898Z,14.30
2023-05-06T18:32:15.590Z,14.30
2023-05-06T18:34:42.338Z,14.30
2023-05-06T18:37:08.912Z,14.30
2023-05-06T18:39:35.772Z,14.30
2023-05-06T18:42:03.046Z,14.30
2023-05-06T18:44:29.698Z,14.30
2023-05-06T18:46:56.532Z,14.30
2023-05-06T18:49:23.748Z,14.30
2023-05-06T18:51:50.633Z,14.30
2023-05-06T18:54:17.276Z,14.30
2023-05-06T18:56:44.070Z,14.20
2023-05-06T18:59:11.405Z,14.20
2023-05-06T19:01:38.105Z,14.20
2023-05-06T19:04:05.717Z,14.20
2023-05-06T19:06:32.553Z,14.20
2023-05-06T19:08:59.148Z,14.10
2023-05-06T19:11:25.857Z,14.10
2023-05-06T19:13:52.586Z,14.10
2023-05-06T19:16:19.398Z,14.10
2023-05-06T19:18:47.810Z,14.10
2023-05-06T19:21:15.303Z,14.00
2023-05-06T19:23:42.087Z,14.00
2023-05-06T19:26:11.223Z,14.00
2023-05-06T19:28:37.923Z,14.00
2023-05-06T19:31:04.671Z,14.00
2023-05-06T19:33:31.389Z,14.10
2023-05-06T19:35:58.108Z,14.10
2023-05-06T19:38:24.769Z,14.00
2023-05-06T19:40:51.548Z,14.00
2023-05-06T19:43:18.230Z,14.00
2023-05-06T19:45:44.966Z,14.00
2023-05-06T19:48:12.895Z,14.00
2023-05-06T19:50:39.565Z,14.00
2023-05-06T19:53:06.254Z,14.00
2023-05-06T19:55:32.973Z,14.00
2023-05-06T19:57:59.664Z,14.00
2023-05-06T20:00:28.101Z,14.00
2023-05-06T20:02:54.961Z,14.00
2023-05-06T20:05:21.862Z,14.00
2023-05-06T20:07:48.611Z,14.10
2023-05-06T20:10:15.433Z,14.10
2023-05-06T20:12:42.290Z,14.10
2023-05-06T20:15:11.216Z,14.10
2023-05-06T20:17:40.187Z,14.10
2023-05-06T20:20:10.085Z,14.10
2023-05-06T20:22:36.950Z,14.00
2023-05-06T20:25:04.348Z,14.10
2023-05-06T20:27:31.173Z,14.10
2023-05-06T20:29:58.000Z,14.10
2023-05-06T20:32:24.932Z,14.10
2023-05-06T20:34:51.699Z,14.10
2023-05-06T20:37:22.098Z,14.10
2023-05-06T20:39:50.032Z,14.10
2023-05-06T20:42:16.732Z,14.10
2023-05-06T20:44:43.494Z,14.10
2023-05-06T20:47:12.593Z,14.10
2023-05-06T20:49:41.191Z,14.20
2023-05-06T20:52:11.208Z,14.10
2023-05-06T20:54:38.221Z,14.10
2023-05-06T20:57:06.018Z,14.20
2023-05-06T20:59:32.828Z,14.20
2023-05-06T21:02:02.506Z,14.20
2023-05-06T21:04:29.269Z,14.20
2023-05-06T21:06:57.446Z,14.10
2023-05-06T21:09:24.167Z,14.10
2023-05-06T21:11:51.397Z,14.10
2023-05-06T21:14:18.942Z,14.10
2023-05-06T21:16:45.779Z,14.10
2023-05-06T21:19:12.529Z,14.00
2023-05-06T21:21:39.264Z,14.10
2023-05-06T21:24:07.140Z,14.20
2023-05-06T21:26:33.976Z,14.10
2023-05-06T21:29:00.774Z,14.10
2023-05-06T21:31:27.498Z,14.00
2023-05-06T21:33:54.268Z,14.10
2023-05-06T21:36:21.017Z,14.10
2023-05-06T21:38:47.757Z,14.10
2023-05-06T21:41:14.510Z,14.10
2023-05-06T21:43:41.213Z,14.10
2023-05-06T21:46:07.939Z,14.00
2023-05-06T21:48:34.732Z,14.00
2023-05-06T21:51:01.800Z,14.00
2023-05-06T21:53:28.589Z,14.00
2023-05-06T21:55:55.945Z,14.00
2023-05-06T21:58:22.716Z,14.00
2023-05-06T22:00:49.478Z,14.10
2023-05-06T22:03:16.447Z,14.00
2023-05-06T22:05:43.287Z,14.10
2023-05-06T22:08:09.987Z,14.10
2023-05-06T22:10:36.950Z,14.10
2023-05-06T22:13:03.941Z,14.10
2023-05-06T22:15:31.139Z,14.10
2023-05-06T22:17:59.170Z,14.00
2023-05-06T22:20:28.952Z,14.00
2023-05-06T22:22:55.810Z,14.00
2023-05-06T22:25:22.542Z,14.00
2023-05-06T22:27:49.289Z,14.00
2023-05-06T22:30:16.410Z,14.00
2023-05-06T22:32:43.390Z,14.00
2023-05-06T22:35:10.386Z,14.00
2023-05-06T22:37:37.243Z,14.00
2023-05-06T22:40:04.339Z,14.00
2023-05-06T22:42:31.141Z,14.00
2023-05-06T22:44:57.898Z,14.00
2023-05-06T22:47:25.904Z,14.00
2023-05-06T22:49:52.636Z,14.00
2023-05-06T22:52:20.273Z,14.00
2023-05-06T22:54:47.179Z,14.00
2023-05-06T22:57:14.535Z,13.90
2023-05-06T22:59:41.294Z,13.90
2023-05-06T23:02:08.119Z,13.90
2023-05-06T23:04:34.862Z,14.00
2023-05-06T23:07:01.601Z,14.00
2023-05-06T23:09:28.488Z,14.00
2023-05-06T23:11:55.225Z,13.90
2023-05-06T23:14:22.068Z,13.90
2023-05-06T23:16:48.918Z,13.90
2023-05-06T23:19:15.638Z,13.90
2023-05-06T23:21:43.902Z,13.90
2023-05-06T23:24:10.728Z,13.90
2023-05-06T23:26:37.450Z,13.90
2023-05-06T23:29:04.180Z,13.90
2023-05-06T23:31:30.963Z,13.90
2023-05-06T23:33:57.680Z,13.90
2023-05-06T23:36:24.384Z,13.90
2023-05-06T23:38:51.021Z,13.90
2023-05-06T23:41:17.670Z,14.00
2023-05-06T23:43:44.379Z,13.90
2023-05-06T23:46:11.367Z,13.90
2023-05-06T23:48:38.073Z,13.80
2023-05-06T23:51:04.734Z,13.70
2023-05-06T23:53:31.550Z,13.70
2023-05-06T23:56:01.306Z,13.60
2023-05-06T23:58:29.156Z,13.60
